createdAt,value
2023-03-04T00:02:07.646Z,87.16
2023-03-04T00:04:34.144Z,87.20
2023-03-04T00:07:00.552Z,87.54
2023-03-04T00:09:27.348Z,87.53
2023-03-04T00:11:53.836Z,87.30
2023-03-04T00:14:20.525Z,87.24
2023-03-04T00:16:49.059Z,87.14
2023-03-04T00:19:15.570Z,86.79
2023-03-04T00:21:42.171Z,86.58
2023-03-04T00:24:08.679Z,87.12
2023-03-04T00:26:35.154Z,86.69
2023-03-04T00:29:01.650Z,87.53
2023-03-04T00:31:28.207Z,87.25
2023-03-04T00:33:54.697Z,87.39
2023-03-04T00:36:21.168Z,87.80
2023-03-04T00:38:47.620Z,87.92
2023-03-04T00:41:14.028Z,87.73
2023-03-04T00:43:41.480Z,87.24
2023-03-04T00:46:08.145Z,87.74
2023-03-04T00:48:34.854Z,88.15
2023-03-04T00:51:01.270Z,88.33
2023-03-04T00:53:27.721Z,88.31
2023-03-04T00:55:54.120Z,88.09
2023-03-04T00:58:20.705Z,88.28
2023-03-04T01:00:47.162Z,88.97
2023-03-04T01:03:13.685Z,88.61
2023-03-04T01:05:40.534Z,88.17
2023-03-04T01:08:07.407Z,88.56
2023-03-04T01:10:34.047Z,88.91
2023-03-04T01:13:00.685Z,88.76
2023-03-04T01:15:27.227Z,88.66
2023-03-04T01:17:53.878Z,88.23
2023-03-04T01:20:20.609Z,87.88
2023-03-04T01:22:47.176Z,88.01
2023-03-04T01:25:14.581Z,88.13
2023-03-04T01:27:41.012Z,87.45
2023-03-04T01:30:07.947Z,87.65
2023-03-04T01:32:34.533Z,88.01
2023-03-04T01:35:01.036Z,87.88
2023-03-04T01:37:27.464Z,87.45
2023-03-04T01:39:53.976Z,87.75
2023-03-04T01:42:23.070Z,87.70
2023-03-04T01:44:51.361Z,87.66
2023-03-04T01:47:19.175Z,87.73
2023-03-04T01:49:50.874Z,87.79
2023-03-04T01:52:17.289Z,87.51
2023-03-04T01:54:43.704Z,87.74
2023-03-04T01:57:17.853Z,87.70
2023-03-04T01:59:45.008Z,87.48
2023-03-04T02:02:12.762Z,87.43
2023-03-04T02:04:41.271Z,87.51
2023-03-04T02:07:08.348Z,87.84
2023-03-04T02:09:35.739Z,87.78
2023-03-04T02:12:02.411Z,87.91
2023-03-04T02:14:29.210Z,87.88
2023-03-04T02:16:55.874Z,87.34
2023-03-04T02:19:36.772Z,87.15
2023-03-04T02:22:03.569Z,86.40
2023-03-04T02:24:38.801Z,86.98
2023-03-04T02:27:05.401Z,85.92
2023-03-04T02:29:32.187Z,85.73
2023-03-04T02:31:58.788Z,85.78
2023-03-04T02:34:31.694Z,85.33
2023-03-04T02:36:59.235Z,85.58
2023-03-04T02:39:42.222Z,84.90
2023-03-04T02:42:10.794Z,84.11
2023-03-04T02:44:44.719Z,84.71
2023-03-04T02:47:13.515Z,84.53
2023-03-04T02:49:41.550Z,84.44
2023-03-04T02:52:13.046Z,84.25
2023-03-04T02:54:39.865Z,84.48
2023-03-04T02:57:09.473Z,84.06
2023-03-04T02:59:39.510Z,84.20
2023-03-04T03:02:08.040Z,83.97
2023-03-04T03:04:37.430Z,84.28
2023-03-04T03:07:07.625Z,84.12
2023-03-04T03:09:34.259Z,84.41
2023-03-04T03:12:00.870Z,84.01
2023-03-04T03:14:29.489Z,84.21
2023-03-04T03:16:56.001Z,84.63
2023-03-04T03:19:22.465Z,84.83
2023-03-04T03:21:50.434Z,84.52
2023-03-04T03:24:16.956Z,84.86
2023-03-04T03:26:43.418Z,85.08
2023-03-04T03:29:09.888Z,84.37
2023-03-04T03:31:36.571Z,85.39
2023-03-04T03:34:03.072Z,85.02
2023-03-04T03:36:29.630Z,85.24
2023-03-04T03:38:56.215Z,86.21
2023-03-04T03:41:22.645Z,85.81
2023-03-04T03:43:49.083Z,85.92
2023-03-04T03:46:15.496Z,85.50
2023-03-04T03:48:41.943Z,86.17
2023-03-04T03:51:08.389Z,86.38
2023-03-04T03:53:34.783Z,86.24
2023-03-04T03:56:01.354Z,87.07
2023-03-04T03:58:27.859Z,86.84
2023-03-04T04:00:56.415Z,86.64
2023-03-04T04:03:24.570Z,87.20
2023-03-04T04:05:51.098Z,87.32
2023-03-04T04:08:17.867Z,87.79
2023-03-04T04:10:44.753Z,87.53
2023-03-04T04:13:11.658Z,87.87
2023-03-04T04:15:38.941Z,88.60
2023-03-04T04:18:07.216Z,88.70
2023-03-04T04:20:34.131Z,88.31
2023-03-04T04:23:00.928Z,87.93
2023-03-04T04:25:27.378Z,88.68
2023-03-04T04:27:53.855Z,88.04
2023-03-04T04:30:20.545Z,88.47
2023-03-04T04:32:47.005Z,87.97
2023-03-04T04:35:13.426Z,87.88
2023-03-04T04:37:39.822Z,88.98
2023-03-04T04:40:07.380Z,88.51
2023-03-04T04:42:33.954Z,88.60
2023-03-04T04:45:00.345Z,88.79
2023-03-04T04:47:26.821Z,89.12
2023-03-04T04:49:53.340Z,88.50
2023-03-04T04:52:19.810Z,88.79
2023-03-04T04:54:46.319Z,88.58
2023-03-04T04:57:12.729Z,88.95
2023-03-04T04:59:39.138Z,88.49
2023-03-04T05:02:05.560Z,88.84
2023-03-04T05:04:32.029Z,88.89
2023-03-04T05:06:58.460Z,88.62
2023-03-04T05:09:24.916Z,88.88
2023-03-04T05:11:51.529Z,88.93
2023-03-04T05:14:18.043Z,88.34
2023-03-04T05:16:44.542Z,88.61
2023-03-04T05:19:11.371Z,88.09
2023-03-04T05:21:37.838Z,88.50
2023-03-04T05:24:04.417Z,88.22
2023-03-04T05:26:30.986Z,88.54
2023-03-04T05:28:57.452Z,88.48
2023-03-04T05:31:24.053Z,88.32
2023-03-04T05:33:50.486Z,87.92
2023-03-04T05:36:16.934Z,88.44
2023-03-04T05:38:43.350Z,88.26
2023-03-04T05:41:09.961Z,87.79
2023-03-04T05:43:36.711Z,88.44
2023-03-04T05:46:04.510Z,88.11
2023-03-04T05:48:31.074Z,88.15
2023-03-04T05:50:59.517Z,88.53
2023-03-04T05:53:27.167Z,88.60
2023-03-04T05:55:53.701Z,88.38
2023-03-04T05:58:21.249Z,88.36
2023-03-04T06:00:48.185Z,89.11
2023-03-04T06:03:20.083Z,88.96
2023-03-04T06:05:46.928Z,89.11
2023-03-04T06:08:13.825Z,89.64
2023-03-04T06:10:41.349Z,89.77
2023-03-04T06:13:08.878Z,89.86
2023-03-04T06:15:35.367Z,89.53
2023-03-04T06:18:02.033Z,89.63
2023-03-04T06:20:28.553Z,89.34
2023-03-04T06:22:55.062Z,89.57
2023-03-04T06:25:22.167Z,89.84
2023-03-04T06:27:50.630Z,90.26
2023-03-04T06:30:17.994Z,90.50
2023-03-04T06:32:44.473Z,90.53
2023-03-04T06:35:12.401Z,90.67
2023-03-04T06:37:39.514Z,90.26
2023-03-04T06:40:07.689Z,90.73
2023-03-04T06:42:34.874Z,90.31
2023-03-04T06:45:01.856Z,90.64
2023-03-04T06:47:28.442Z,90.26
2023-03-04T06:49:54.939Z,90.84
2023-03-04T06:52:21.448Z,90.27
2023-03-04T06:54:47.902Z,90.73
2023-03-04T06:57:14.459Z,91.08
2023-03-04T06:59:41.063Z,90.42
2023-03-04T07:02:11.398Z,90.76
2023-03-04T07:04:38.327Z,91.04
2023-03-04T07:07:04.781Z,90.84
2023-03-04T07:09:31.665Z,91.09
2023-03-04T07:11:58.085Z,90.68
2023-03-04T07:14:24.511Z,90.82
2023-03-04T07:16:50.918Z,91.02
2023-03-04T07:19:17.666Z,90.86
2023-03-04T07:21:44.144Z,90.90
2023-03-04T07:24:10.558Z,90.93
2023-03-04T07:26:38.150Z,90.65
2023-03-04T07:29:05.320Z,90.48
2023-03-04T07:31:34.664Z,90.60
2023-03-04T07:34:06.443Z,90.70
2023-03-04T07:36:35.404Z,90.58
2023-03-04T07:39:02.239Z,90.73
2023-03-04T07:41:30.012Z,90.56
2023-03-04T07:43:57.751Z,90.68
2023-03-04T07:46:25.097Z,90.41
2023-03-04T07:48:51.616Z,90.58
2023-03-04T07:51:20.494Z,90.57
2023-03-04T07:53:49.454Z,90.63
2023-03-04T07:56:21.146Z,90.52
2023-03-04T07:58:47.731Z,90.85
2023-03-04T08:01:29.412Z,90.23
2023-03-04T08:03:55.968Z,90.53
2023-03-04T08:06:23.080Z,90.43
2023-03-04T08:08:55.118Z,90.40
2023-03-04T08:11:21.675Z,90.28
2023-03-04T08:13:49.079Z,90.03
2023-03-04T08:16:19.059Z,90.18
2023-03-04T08:18:48.133Z,90.05
2023-03-04T08:21:16.781Z,89.96
2023-03-04T08:23:43.374Z,89.96
2023-03-04T08:26:12.818Z,90.03
2023-03-04T08:28:39.460Z,90.06
2023-03-04T08:31:06.578Z,89.84
2023-03-04T08:33:34.202Z,89.99
2023-03-04T08:36:00.647Z,90.02
2023-03-04T08:38:27.086Z,90.14
2023-03-04T08:40:57.503Z,90.28
2023-03-04T08:43:25.769Z,90.18
2023-03-04T08:45:54.030Z,89.78
2023-03-04T08:48:21.595Z,89.56
2023-03-04T08:50:49.446Z,89.99
2023-03-04T08:53:17.231Z,90.04
2023-03-04T08:55:44.081Z,90.35
2023-03-04T08:58:11.192Z,90.49
2023-03-04T09:00:40.372Z,90.38
2023-03-04T09:03:06.900Z,90.41
2023-03-04T09:05:33.480Z,90.52
2023-03-04T09:07:59.962Z,90.51
2023-03-04T09:10:26.381Z,90.49
2023-03-04T09:12:52.854Z,90.60
2023-03-04T09:15:19.329Z,90.60
2023-03-04T09:17:45.860Z,90.36
2023-03-04T09:20:13.083Z,90.44
2023-03-04T09:22:41.258Z,90.40
2023-03-04T09:25:12.059Z,90.02
2023-03-04T09:27:39.383Z,89.80
2023-03-04T09:30:06.524Z,89.81
2023-03-04T09:32:33.177Z,89.90
2023-03-04T09:34:59.683Z,89.93
2023-03-04T09:37:26.122Z,89.59
2023-03-04T09:39:52.522Z,89.49
2023-03-04T09:42:32.475Z,89.59
2023-03-04T09:44:59.212Z,89.52
2023-03-04T09:47:26.787Z,89.83
2023-03-04T09:50:09.581Z,89.49
2023-03-04T09:53:02.179Z,89.86
2023-03-04T09:55:37.762Z,89.80
2023-03-04T09:58:23.140Z,89.98
2023-03-04T10:01:05.044Z,90.10
2023-03-04T10:03:48.213Z,89.89
2023-03-04T10:06:20.338Z,89.80
2023-03-04T10:08:54.163Z,89.53
2023-03-04T10:11:26.715Z,89.58
2023-03-04T10:14:03.491Z,89.28
2023-03-04T10:16:36.424Z,88.07
2023-03-04T10:19:20.137Z,87.88
2023-03-04T10:21:49.242Z,88.64
2023-03-04T10:24:18.874Z,88.97
2023-03-04T10:26:49.351Z,89.47
2023-03-04T10:29:16.728Z,89.52
2023-03-04T10:31:44.457Z,89.82
2023-03-04T10:34:13.079Z,90.09
2023-03-04T10:36:55.209Z,89.55
2023-03-04T10:39:38.282Z,89.73
2023-03-04T10:42:15.588Z,89.91
2023-03-04T10:44:51.065Z,90.34
2023-03-04T10:47:17.551Z,89.80
2023-03-04T10:49:57.466Z,85.90
2023-03-04T10:52:41.165Z,79.52
2023-03-04T10:55:16.880Z,80.44
2023-03-04T10:57:47.566Z,78.46
2023-03-04T11:00:28.488Z,82.81
2023-03-04T11:03:23.880Z,85.65
2023-03-04T11:05:51.273Z,85.59
2023-03-04T11:08:20.638Z,88.30
2023-03-04T11:10:47.716Z,89.69
2023-03-04T11:13:22.854Z,90.29
2023-03-04T11:15:52.304Z,90.31
2023-03-04T11:18:34.022Z,89.96
2023-03-04T11:21:01.107Z,90.21
2023-03-04T11:23:39.604Z,90.00
2023-03-04T11:26:12.673Z,88.95
2023-03-04T11:28:54.280Z,87.89
2023-03-04T11:31:27.933Z,87.07
2023-03-04T11:34:28.952Z,83.66
2023-03-04T11:37:22.852Z,82.78
2023-03-04T11:39:56.654Z,81.56
2023-03-04T11:42:41.398Z,79.21
2023-03-04T11:45:27.785Z,83.35
2023-03-04T11:48:17.584Z,82.28
2023-03-04T11:50:54.077Z,84.41
2023-03-04T11:53:26.630Z,84.28
2023-03-04T11:56:26.413Z,88.10
2023-03-04T11:59:05.218Z,88.90
2023-03-04T12:01:52.319Z,90.25
2023-03-04T12:04:42.368Z,90.02
2023-03-04T12:07:17.734Z,90.28
2023-03-04T12:10:45.998Z,88.71
2023-03-04T12:13:35.402Z,88.78
2023-03-04T12:16:32.847Z,87.88
2023-03-04T12:19:12.038Z,88.58
2023-03-04T12:22:09.029Z,87.21
2023-03-04T12:25:03.782Z,85.77
2023-03-04T12:27:41.977Z,88.00
2023-03-04T12:30:35.504Z,86.78
2023-03-04T12:33:23.569Z,86.54
2023-03-04T12:35:52.730Z,84.87
2023-03-04T12:38:35.160Z,85.11
2023-03-04T12:41:28.307Z,82.70
2023-03-04T12:44:12.440Z,83.83
2023-03-04T12:46:44.191Z,81.97
2023-03-04T12:49:25.993Z,82.08
2023-03-04T12:52:10.413Z,81.73
2023-03-04T12:54:39.856Z,80.29
2023-03-04T12:57:06.232Z,80.78
2023-03-04T12:59:59.638Z,79.71
2023-03-04T13:02:47.819Z,78.71
2023-03-04T13:05:36.956Z,79.09
2023-03-04T13:08:15.372Z,80.54
2023-03-04T13:10:41.868Z,79.62
2023-03-04T13:13:38.888Z,82.36
2023-03-04T13:16:26.806Z,83.15
2023-03-04T13:18:53.260Z,85.05
2023-03-04T13:21:25.562Z,85.99
2023-03-04T13:23:53.704Z,86.10
2023-03-04T13:26:31.525Z,87.05
2023-03-04T13:29:12.981Z,86.48
2023-03-04T13:32:01.183Z,87.96
2023-03-04T13:34:57.835Z,88.52
2023-03-04T13:37:30.867Z,88.10
2023-03-04T13:40:27.333Z,88.42
2023-03-04T13:42:53.845Z,86.70
2023-03-04T13:45:35.596Z,86.51
2023-03-04T13:48:07.056Z,86.13
2023-03-04T13:50:38.023Z,83.14
2023-03-04T13:53:42.927Z,83.35
2023-03-04T13:56:18.328Z,83.93
2023-03-04T13:58:46.025Z,82.43
2023-03-04T14:01:25.195Z,83.44
2023-03-04T14:03:51.718Z,82.97
2023-03-04T14:06:22.262Z,80.23
2023-03-04T14:08:49.725Z,79.87
2023-03-04T14:11:24.299Z,79.26
2023-03-04T14:13:51.718Z,77.56
2023-03-04T14:16:23.592Z,77.38
2023-03-04T14:19:02.458Z,77.71
2023-03-04T14:21:29.950Z,77.30
2023-03-04T14:24:21.024Z,77.10
2023-03-04T14:26:48.264Z,75.82
2023-03-04T14:29:26.400Z,77.02
2023-03-04T14:31:54.396Z,77.29
2023-03-04T14:34:37.678Z,78.27
2023-03-04T14:37:20.642Z,77.39
2023-03-04T14:39:50.708Z,76.80
2023-03-04T14:42:19.531Z,76.45
2023-03-04T14:44:50.152Z,75.37
2023-03-04T14:47:23.253Z,76.31
2023-03-04T14:49:50.729Z,76.79
2023-03-04T14:52:32.648Z,76.74
2023-03-04T14:55:14.199Z,76.13
2023-03-04T14:57:42.520Z,76.21
2023-03-04T15:00:18.131Z,75.67
2023-03-04T15:02:44.923Z,75.72
2023-03-04T15:05:26.415Z,76.11
2023-03-04T15:07:59.707Z,77.47
2023-03-04T15:10:36.735Z,77.86
2023-03-04T15:13:04.983Z,78.67
2023-03-04T15:15:31.639Z,80.26
2023-03-04T15:18:18.800Z,80.67
2023-03-04T15:20:53.898Z,80.60
2023-03-04T15:23:20.287Z,80.56
2023-03-04T15:25:50.318Z,80.82
2023-03-04T15:28:19.183Z,80.99
2023-03-04T15:30:46.235Z,80.96
2023-03-04T15:33:13.381Z,80.46
2023-03-04T15:35:41.704Z,80.34
2023-03-04T15:38:12.088Z,80.38
2023-03-04T15:40:44.007Z,81.07
2023-03-04T15:43:21.956Z,80.98
2023-03-04T15:45:50.281Z,81.05
2023-03-04T15:48:18.465Z,81.22
2023-03-04T15:50:51.189Z,81.40
2023-03-04T15:53:27.126Z,80.71
2023-03-04T15:55:54.053Z,80.30
2023-03-04T15:58:20.692Z,80.62
2023-03-04T16:00:47.094Z,80.41
2023-03-04T16:03:18.700Z,80.17
2023-03-04T16:05:48.373Z,80.42
2023-03-04T16:08:18.218Z,80.05
2023-03-04T16:10:45.612Z,79.93
2023-03-04T16:13:18.004Z,79.45
2023-03-04T16:15:44.909Z,78.65
2023-03-04T16:18:13.337Z,78.14
2023-03-04T16:20:43.174Z,78.44
2023-03-04T16:23:16.540Z,78.61
2023-03-04T16:25:44.948Z,78.59
2023-03-04T16:28:12.947Z,79.00
2023-03-04T16:30:40.583Z,79.34
2023-03-04T16:33:07.129Z,79.84
2023-03-04T16:35:39.034Z,79.08
2023-03-04T16:38:12.255Z,79.93
2023-03-04T16:40:39.257Z,79.60
2023-03-04T16:43:05.670Z,79.99
2023-03-04T16:45:32.499Z,79.92
2023-03-04T16:47:58.903Z,80.27
2023-03-04T16:50:27.314Z,80.24
2023-03-04T16:52:55.143Z,80.01
2023-03-04T16:55:27.682Z,80.42
2023-03-04T16:57:55.676Z,80.89
2023-03-04T17:00:23.763Z,80.37
2023-03-04T17:02:56.189Z,80.35
2023-03-04T17:05:25.741Z,80.57
2023-03-04T17:07:52.255Z,80.88
2023-03-04T17:10:19.441Z,81.34
2023-03-04T17:12:45.904Z,81.40
2023-03-04T17:15:13.817Z,81.70
2023-03-04T17:17:41.409Z,82.02
2023-03-04T17:20:10.053Z,82.81
2023-03-04T17:22:36.755Z,83.37
2023-03-04T17:25:03.568Z,83.85
2023-03-04T17:27:30.490Z,84.19
2023-03-04T17:29:56.888Z,83.59
2023-03-04T17:32:23.485Z,84.03
2023-03-04T17:34:50.022Z,84.32
2023-03-04T17:37:16.467Z,85.16
2023-03-04T17:39:43.025Z,84.83
2023-03-04T17:42:09.474Z,85.30
2023-03-04T17:44:35.926Z,85.87
2023-03-04T17:47:02.368Z,86.56
2023-03-04T17:49:28.830Z,88.26
2023-03-04T17:51:55.347Z,88.29
2023-03-04T17:54:21.794Z,88.44
2023-03-04T17:56:48.259Z,88.74
2023-03-04T17:59:15.894Z,88.11
2023-03-04T18:01:45.099Z,88.37
2023-03-04T18:04:12.619Z,88.67
2023-03-04T18:06:39.111Z,88.87
2023-03-04T18:09:06.438Z,88.78
2023-03-04T18:11:36.454Z,88.60
2023-03-04T18:14:03.682Z,89.26
2023-03-04T18:16:30.409Z,89.07
2023-03-04T18:18:58.683Z,88.76
2023-03-04T18:21:28.785Z,89.25
2023-03-04T18:23:56.120Z,89.12
2023-03-04T18:26:23.487Z,88.72
2023-03-04T18:28:51.240Z,88.98
2023-03-04T18:31:19.519Z,89.15
2023-03-04T18:33:47.018Z,89.09
2023-03-04T18:36:14.135Z,89.27
2023-03-04T18:38:41.626Z,89.12
2023-03-04T18:41:11.558Z,89.79
2023-03-04T18:43:38.340Z,89.30
2023-03-04T18:46:09.776Z,89.68
2023-03-04T18:48:41.784Z,89.49
2023-03-04T18:51:08.175Z,89.39
2023-03-04T18:53:34.677Z,88.85
2023-03-04T18:56:07.162Z,89.15
2023-03-04T18:58:36.662Z,88.91
2023-03-04T19:01:07.184Z,88.89
2023-03-04T19:03:37.446Z,89.25
2023-03-04T19:06:05.590Z,89.32
2023-03-04T19:08:32.554Z,89.29
2023-03-04T19:10:59.166Z,89.21
2023-03-04T19:13:25.710Z,88.99
2023-03-04T19:15:54.104Z,89.84
2023-03-04T19:18:21.208Z,89.17
2023-03-04T19:20:47.772Z,89.89
2023-03-04T19:23:15.417Z,89.35
2023-03-04T19:25:43.401Z,89.75
2023-03-04T19:28:10.567Z,89.91
2023-03-04T19:30:38.636Z,89.46
2023-03-04T19:33:05.344Z,90.17
2023-03-04T19:35:34.596Z,90.32
2023-03-04T19:38:01.203Z,90.78
2023-03-04T19:40:28.396Z,90.26
2023-03-04T19:42:56.728Z,90.93
2023-03-04T19:45:25.255Z,90.83
2023-03-04T19:47:52.098Z,90.35
2023-03-04T19:50:19.127Z,90.54
2023-03-04T19:52:45.696Z,90.21
2023-03-04T19:55:14.921Z,90.30
2023-03-04T19:57:42.205Z,91.03
2023-03-04T20:00:11.409Z,90.60
2023-03-04T20:02:38.008Z,90.80
2023-03-04T20:05:05.241Z,91.37
2023-03-04T20:07:31.727Z,91.03
2023-03-04T20:09:58.282Z,90.49
2023-03-04T20:12:25.018Z,91.27
2023-03-04T20:14:51.539Z,91.26
2023-03-04T20:17:18.326Z,91.00
2023-03-04T20:19:44.891Z,91.26
2023-03-04T20:22:13.265Z,90.43
2023-03-04T20:24:39.760Z,90.84
2023-03-04T20:27:06.242Z,91.31
2023-03-04T20:29:32.688Z,90.50
2023-03-04T20:31:59.300Z,90.92
2023-03-04T20:34:26.921Z,91.36
2023-03-04T20:36:53.561Z,91.21
2023-03-04T20:39:28.460Z,90.85
2023-03-04T20:41:59.474Z,90.60
2023-03-04T20:44:26.733Z,90.88
2023-03-04T20:46:53.461Z,90.97
2023-03-04T20:49:26.185Z,91.04
2023-03-04T20:51:55.759Z,91.41
2023-03-04T20:54:22.265Z,91.01
2023-03-04T20:56:49.068Z,91.14
2023-03-04T20:59:15.711Z,91.41
2023-03-04T21:01:44.413Z,91.56
2023-03-04T21:04:11.414Z,91.30
2023-03-04T21:06:38.793Z,91.28
2023-03-04T21:09:11.646Z,91.20
2023-03-04T21:11:40.721Z,91.59
2023-03-04T21:14:29.003Z,91.11
2023-03-04T21:16:58.067Z,92.00
2023-03-04T21:19:29.926Z,91.96
2023-03-04T21:21:57.829Z,90.87
2023-03-04T21:24:29.665Z,91.56
2023-03-04T21:26:56.536Z,91.60
2023-03-04T21:29:25.178Z,91.21
2023-03-04T21:31:54.371Z,90.99
2023-03-04T21:34:41.561Z,90.61
2023-03-04T21:37:09.942Z,91.18
2023-03-04T21:39:36.435Z,90.79
2023-03-04T21:42:04.492Z,90.60
2023-03-04T21:44:45.022Z,91.30
2023-03-04T21:47:14.807Z,90.66
2023-03-04T21:49:41.205Z,91.56
2023-03-04T21:52:07.596Z,91.28
2023-03-04T21:54:34.083Z,90.88
2023-03-04T21:57:00.569Z,90.73
2023-03-04T21:59:27.914Z,90.55
2023-03-04T22:01:55.154Z,90.45
2023-03-04T22:04:21.738Z,89.69
2023-03-04T22:06:48.219Z,90.67
2023-03-04T22:09:14.667Z,90.45
2023-03-04T22:11:41.157Z,89.75
2023-03-04T22:14:07.905Z,89.73
2023-03-04T22:16:42.429Z,90.20
2023-03-04T22:19:15.190Z,90.96
2023-03-04T22:21:41.694Z,91.13
2023-03-04T22:24:08.234Z,91.03
2023-03-04T22:26:35.048Z,90.63
2023-03-04T22:29:02.572Z,90.03
2023-03-04T22:31:31.886Z,90.81
2023-03-04T22:34:10.331Z,90.24
2023-03-04T22:36:40.258Z,90.26
2023-03-04T22:39:09.714Z,90.19
2023-03-04T22:41:36.719Z,90.59
2023-03-04T22:44:03.796Z,90.81
2023-03-04T22:46:32.434Z,90.23
2023-03-04T22:49:02.154Z,90.71
2023-03-04T22:51:28.976Z,89.90
2023-03-04T22:53:56.502Z,90.49
2023-03-04T22:56:23.078Z,91.28
2023-03-04T22:58:49.639Z,90.71
2023-03-04T23:01:18.156Z,90.60
2023-03-04T23:03:46.727Z,90.62
2023-03-04T23:06:16.727Z,90.87
2023-03-04T23:08:45.311Z,90.37
2023-03-04T23:11:17.421Z,90.12
2023-03-04T23:13:44.306Z,90.95
2023-03-04T23:16:12.607Z,90.41
2023-03-04T23:18:41.147Z,90.73
2023-03-04T23:21:13.716Z,90.71
2023-03-04T23:23:41.176Z,90.93
2023-03-04T23:26:24.550Z,90.50
2023-03-04T23:28:51.470Z,90.78
2023-03-04T23:31:18.799Z,91.63
2023-03-04T23:33:47.036Z,91.23
2023-03-04T23:36:16.821Z,91.33
2023-03-04T23:38:45.029Z,91.21
2023-03-04T23:41:12.897Z,91.59
2023-03-04T23:43:39.359Z,91.12
2023-03-04T23:46:05.939Z,90.82
2023-03-04T23:48:32.408Z,90.80
2023-03-04T23:50:59.420Z,90.80
2023-03-04T23:53:25.973Z,90.84
2023-03-04T23:55:52.406Z,90.77
2023-03-04T23:58:18.929Z,91.20
